sensor_id;sensor_type;location;lat;lon;timestamp;P1;durP1;ratioP1;P2;durP2;ratioP2
16326;SDS011;34812;49.846;9.610;2023-01-29T00:00:21;6.63;;;5.30;;
16326;SDS011;34812;49.846;9.610;2023-01-29T00:01:23;5.60;;;5.10;;
16326;SDS011;34812;49.846;9.610;2023-01-29T00:02:24;5.87;;;5.37;;
16326;SDS011;34812;49.846;9.610;2023-01-29T00:03:26;5.67;;;5.17;;
16326;SDS011;34812;49.846;9.610;2023-01-29T00:04:26;5.50;;;5.10;;
16326;SDS011;34812;49.846;9.610;2023-01-29T00:05:28;6.67;;;5.87;;
16326;SDS011;34812;49.846;9.610;2023-01-29T00:06:29;5.80;;;5.30;;
16326;SDS011;34812;49.846;9.610;2023-01-29T00:07:31;4.93;;;4.53;;
16326;SDS011;34812;49.846;9.610;2023-01-29T00:08:32;5.20;;;4.80;;
16326;SDS011;34812;49.846;9.610;2023-01-29T00:09:33;5.83;;;5.33;;
16326;SDS011;34812;49.846;9.610;2023-01-29T00:10:35;5.20;;;4.80;;
16326;SDS011;34812;49.846;9.610;2023-01-29T00:11:36;5.80;;;5.33;;
16326;SDS011;34812;49.846;9.610;2023-01-29T00:12:38;5.17;;;4.77;;
16326;SDS011;34812;49.846;9.610;2023-01-29T00:13:40;5.57;;;5.17;;
16326;SDS011;34812;49.846;9.610;2023-01-29T00:14:42;5.77;;;5.27;;
16326;SDS011;34812;49.846;9.610;2023-01-29T00:15:46;5.80;;;5.30;;
16326;SDS011;34812;49.846;9.610;2023-01-29T00:16:54;5.67;;;5.27;;
16326;SDS011;34812;49.846;9.610;2023-01-29T00:17:55;6.07;;;5.63;;
16326;SDS011;34812;49.846;9.610;2023-01-29T00:18:56;5.90;;;5.43;;
16326;SDS011;34812;49.846;9.610;2023-01-29T00:19:57;5.90;;;5.40;;
16326;SDS011;34812;49.846;9.610;2023-01-29T00:20:59;5.60;;;5.20;;
16326;SDS011;34812;49.846;9.610;2023-01-29T00:22:00;5.90;;;5.40;;
16326;SDS011;34812;49.846;9.610;2023-01-29T00:23:01;5.60;;;5.10;;
16326;SDS011;34812;49.846;9.610;2023-01-29T00:24:03;6.37;;;5.87;;
16326;SDS011;34812;49.846;9.610;2023-01-29T00:25:05;5.50;;;5.10;;
16326;SDS011;34812;49.846;9.610;2023-01-29T00:26:07;5.43;;;5.03;;
16326;SDS011;34812;49.846;9.610;2023-01-29T00:27:09;5.70;;;5.20;;
16326;SDS011;34812;49.846;9.610;2023-01-29T00:28:11;5.77;;;5.20;;
16326;SDS011;34812;49.846;9.610;2023-01-29T00:29:13;6.03;;;5.53;;
16326;SDS011;34812;49.846;9.610;2023-01-29T00:30:17;5.60;;;5.10;;
16326;SDS011;34812;49.846;9.610;2023-01-29T00:31:18;6.13;;;5.63;;
16326;SDS011;34812;49.846;9.610;2023-01-29T00:32:21;5.27;;;4.87;;
16326;SDS011;34812;49.846;9.610;2023-01-29T00:33:22;5.57;;;5.17;;
16326;SDS011;34812;49.846;9.610;2023-01-29T00:34:24;6.30;;;5.80;;
16326;SDS011;34812;49.846;9.610;2023-01-29T00:35:25;5.77;;;5.27;;
16326;SDS011;34812;49.846;9.610;2023-01-29T00:36:26;5.60;;;5.20;;
16326;SDS011;34812;49.846;9.610;2023-01-29T00:37:28;5.70;;;5.20;;
16326;SDS011;34812;49.846;9.610;2023-01-29T00:38:29;6.40;;;5.87;;
16326;SDS011;34812;49.846;9.610;2023-01-29T00:39:32;5.83;;;5.33;;
16326;SDS011;34812;49.846;9.610;2023-01-29T00:40:38;6.47;;;5.87;;
16326;SDS011;34812;49.846;9.610;2023-01-29T00:41:57;5.57;;;5.17;;
16326;SDS011;34812;49.846;9.610;2023-01-29T00:43:16;6.33;;;5.70;;
16326;SDS011;34812;49.846;9.610;2023-01-29T00:44:37;5.27;;;4.87;;
16326;SDS011;34812;49.846;9.610;2023-01-29T00:45:57;5.63;;;5.13;;
16326;SDS011;34812;49.846;9.610;2023-01-29T00:46:58;6.00;;;5.60;;
16326;SDS011;34812;49.846;9.610;2023-01-29T00:48:00;5.30;;;4.90;;
16326;SDS011;34812;49.846;9.610;2023-01-29T00:49:01;5.20;;;4.80;;
16326;SDS011;34812;49.846;9.610;2023-01-29T00:50:03;6.23;;;5.73;;
16326;SDS011;34812;49.846;9.610;2023-01-29T00:51:05;6.10;;;5.60;;
16326;SDS011;34812;49.846;9.610;2023-01-29T00:52:07;6.50;;;5.97;;
16326;SDS011;34812;49.846;9.610;2023-01-29T00:53:23;5.80;;;5.30;;
16326;SDS011;34812;49.846;9.610;2023-01-29T00:54:25;6.30;;;5.70;;
16326;SDS011;34812;49.846;9.610;2023-01-29T00:55:25;5.63;;;5.23;;
16326;SDS011;34812;49.846;9.610;2023-01-29T00:56:27;5.83;;;5.23;;
16326;SDS011;34812;49.846;9.610;2023-01-29T00:57:30;5.83;;;5.33;;
16326;SDS011;34812;49.846;9.610;2023-01-29T00:58:32;5.13;;;4.73;;
16326;SDS011;34812;49.846;9.610;2023-01-29T00:59:33;5.77;;;5.27;;
16326;SDS011;34812;49.846;9.610;2023-01-29T01:00:36;5.60;;;5.10;;
16326;SDS011;34812;49.846;9.610;2023-01-29T01:01:37;5.13;;;4.73;;
16326;SDS011;34812;49.846;9.610;2023-01-29T01:02:56;5.97;;;5.33;;
16326;SDS011;34812;49.846;9.610;2023-01-29T01:04:07;6.00;;;5.50;;
16326;SDS011;34812;49.846;9.610;2023-01-29T01:05:09;5.20;;;4.80;;
16326;SDS011;34812;49.846;9.610;2023-01-29T01:06:16;5.40;;;5.00;;
16326;SDS011;34812;49.846;9.610;2023-01-29T01:07:17;6.57;;;5.97;;
16326;SDS011;34812;49.846;9.610;2023-01-29T01:08:19;5.97;;;5.47;;
16326;SDS011;34812;49.846;9.610;2023-01-29T01:09:39;5.43;;;5.03;;
16326;SDS011;34812;49.846;9.610;2023-01-29T01:10:59;6.90;;;6.33;;
16326;SDS011;34812;49.846;9.610;2023-01-29T01:12:01;6.20;;;5.70;;
16326;SDS011;34812;49.846;9.610;2023-01-29T01:13:04;6.00;;;5.40;;
16326;SDS011;34812;49.846;9.610;2023-01-29T01:14:07;6.30;;;5.80;;
16326;SDS011;34812;49.846;9.610;2023-01-29T01:15:08;5.97;;;5.47;;
16326;SDS011;34812;49.846;9.610;2023-01-29T01:16:12;7.30;;;5.47;;
16326;SDS011;34812;49.846;9.610;2023-01-29T01:17:14;6.00;;;5.50;;
16326;SDS011;34812;49.846;9.610;2023-01-29T01:18:15;5.43;;;4.93;;
16326;SDS011;34812;49.846;9.610;2023-01-29T01:19:19;5.93;;;5.40;;
16326;SDS011;34812;49.846;9.610;2023-01-29T01:20:20;5.97;;;5.37;;
16326;SDS011;34812;49.846;9.610;2023-01-29T01:21:22;6.70;;;6.10;;
16326;SDS011;34812;49.846;9.610;2023-01-29T01:22:23;5.83;;;5.43;;
16326;SDS011;34812;49.846;9.610;2023-01-29T01:23:24;7.13;;;5.50;;
16326;SDS011;34812;49.846;9.610;2023-01-29T01:24:26;6.73;;;6.10;;
16326;SDS011;34812;49.846;9.610;2023-01-29T01:25:28;6.33;;;5.83;;
16326;SDS011;34812;49.846;9.610;2023-01-29T01:26:29;6.17;;;5.67;;
16326;SDS011;34812;49.846;9.610;2023-01-29T01:27:31;6.63;;;6.07;;
16326;SDS011;34812;49.846;9.610;2023-01-29T01:28:33;6.07;;;5.47;;
16326;SDS011;34812;49.846;9.610;2023-01-29T01:29:35;6.20;;;5.70;;
16326;SDS011;34812;49.846;9.610;2023-01-29T01:30:36;6.17;;;5.60;;
16326;SDS011;34812;49.846;9.610;2023-01-29T01:31:39;6.80;;;6.13;;
16326;SDS011;34812;49.846;9.610;2023-01-29T01:32:41;6.37;;;5.87;;
16326;SDS011;34812;49.846;9.610;2023-01-29T01:33:43;5.93;;;5.40;;
16326;SDS011;34812;49.846;9.610;2023-01-29T01:34:43;6.90;;;6.30;;
16326;SDS011;34812;49.846;9.610;2023-01-29T01:35:45;6.20;;;5.60;;
16326;SDS011;34812;49.846;9.610;2023-01-29T01:36:46;6.43;;;5.93;;
16326;SDS011;34812;49.846;9.610;2023-01-29T01:37:48;6.37;;;5.87;;
16326;SDS011;34812;49.846;9.610;2023-01-29T01:38:49;5.93;;;5.43;;
16326;SDS011;34812;49.846;9.610;2023-01-29T01:39:50;6.03;;;5.43;;
16326;SDS011;34812;49.846;9.610;2023-01-29T01:40:56;6.67;;;6.13;;
16326;SDS011;34812;49.846;9.610;2023-01-29T01:41:58;6.57;;;5.97;;
16326;SDS011;34812;49.846;9.610;2023-01-29T01:42:59;6.57;;;5.93;;
16326;SDS011;34812;49.846;9.610;2023-01-29T01:44:02;6.57;;;6.00;;
16326;SDS011;34812;49.846;9.610;2023-01-29T01:45:05;6.30;;;5.70;;
16326;SDS011;34812;49.846;9.610;2023-01-29T01:46:09;6.50;;;6.00;;
16326;SDS011;34812;49.846;9.610;2023-01-29T01:47:11;5.70;;;5.30;;
16326;SDS011;34812;49.846;9.610;2023-01-29T01:48:14;6.17;;;5.70;;
16326;SDS011;34812;49.846;9.610;2023-01-29T01:49:19;6.60;;;5.90;;
16326;SDS011;34812;49.846;9.610;2023-01-29T01:50:21;6.63;;;6.00;;
16326;SDS011;34812;49.846;9.610;2023-01-29T01:51:29;7.07;;;6.47;;
16326;SDS011;34812;49.846;9.610;2023-01-29T01:52:32;6.20;;;5.67;;
16326;SDS011;34812;49.846;9.610;2023-01-29T01:53:38;6.47;;;5.90;;
16326;SDS011;34812;49.846;9.610;2023-01-29T01:54:42;6.10;;;5.50;;
16326;SDS011;34812;49.846;9.610;2023-01-29T01:55:46;6.40;;;5.90;;
16326;SDS011;34812;49.846;9.610;2023-01-29T01:56:51;5.73;;;5.33;;
16326;SDS011;34812;49.846;9.610;2023-01-29T01:57:56;6.23;;;5.73;;
16326;SDS011;34812;49.846;9.610;2023-01-29T01:59:04;5.60;;;5.20;;
16326;SDS011;34812;49.846;9.610;2023-01-29T02:00:08;6.03;;;5.53;;
16326;SDS011;34812;49.846;9.610;2023-01-29T02:01:13;5.90;;;5.40;;
16326;SDS011;34812;49.846;9.610;2023-01-29T02:02:15;6.03;;;5.53;;
16326;SDS011;34812;49.846;9.610;2023-01-29T02:03:36;6.03;;;5.40;;
16326;SDS011;34812;49.846;9.610;2023-01-29T02:05:00;5.70;;;5.20;;
16326;SDS011;34812;49.846;9.610;2023-01-29T02:06:19;6.17;;;5.67;;
16326;SDS011;34812;49.846;9.610;2023-01-29T02:07:39;5.57;;;5.00;;
16326;SDS011;34812;49.846;9.610;2023-01-29T02:09:01;5.77;;;5.27;;
16326;SDS011;34812;49.846;9.610;2023-01-29T02:10:23;5.90;;;5.27;;
16326;SDS011;34812;49.846;9.610;2023-01-29T02:11:25;5.93;;;5.40;;
16326;SDS011;34812;49.846;9.610;2023-01-29T02:12:26;5.43;;;5.03;;
16326;SDS011;34812;49.846;9.610;2023-01-29T02:13:30;5.70;;;5.23;;
16326;SDS011;34812;49.846;9.610;2023-01-29T02:14:31;9.27;;;5.07;;
16326;SDS011;34812;49.846;9.610;2023-01-29T02:15:37;6.07;;;5.57;;
16326;SDS011;34812;49.846;9.610;2023-01-29T02:16:41;5.67;;;5.17;;
16326;SDS011;34812;49.846;9.610;2023-01-29T02:17:44;5.70;;;5.30;;
16326;SDS011;34812;49.846;9.610;2023-01-29T02:18:47;5.83;;;5.33;;
16326;SDS011;34812;49.846;9.610;2023-01-29T02:19:51;6.10;;;5.60;;
16326;SDS011;34812;49.846;9.610;2023-01-29T02:21:04;6.27;;;5.77;;
16326;SDS011;34812;49.846;9.610;2023-01-29T02:22:19;7.60;;;5.27;;
16326;SDS011;34812;49.846;9.610;2023-01-29T02:23:33;6.33;;;5.77;;
16326;SDS011;34812;49.846;9.610;2023-01-29T02:25:04;5.70;;;5.20;;
16326;SDS011;34812;49.846;9.610;2023-01-29T02:26:39;6.03;;;5.43;;
16326;SDS011;34812;49.846;9.610;2023-01-29T02:28:11;6.07;;;5.63;;
16326;SDS011;34812;49.846;9.610;2023-01-29T02:29:18;6.20;;;5.60;;
16326;SDS011;34812;49.846;9.610;2023-01-29T02:30:29;6.37;;;5.77;;
16326;SDS011;34812;49.846;9.610;2023-01-29T02:31:36;6.13;;;5.53;;
16326;SDS011;34812;49.846;9.610;2023-01-29T02:32:41;6.20;;;5.70;;
16326;SDS011;34812;49.846;9.610;2023-01-29T02:33:55;7.03;;;6.40;;
16326;SDS011;34812;49.846;9.610;2023-01-29T02:35:09;6.57;;;6.00;;
16326;SDS011;34812;49.846;9.610;2023-01-29T02:36:32;6.60;;;6.00;;
16326;SDS011;34812;49.846;9.610;2023-01-29T02:37:40;6.97;;;5.93;;
16326;SDS011;34812;49.846;9.610;2023-01-29T02:38:49;6.50;;;5.90;;
16326;SDS011;34812;49.846;9.610;2023-01-29T02:40:00;6.53;;;6.03;;
16326;SDS011;34812;49.846;9.610;2023-01-29T02:41:11;6.93;;;5.80;;
16326;SDS011;34812;49.846;9.610;2023-01-29T02:42:16;6.50;;;5.90;;
16326;SDS011;34812;49.846;9.610;2023-01-29T02:43:28;6.50;;;5.90;;
16326;SDS011;34812;49.846;9.610;2023-01-29T02:44:39;7.77;;;6.17;;
16326;SDS011;34812;49.846;9.610;2023-01-29T02:45:47;6.00;;;5.50;;
16326;SDS011;34812;49.846;9.610;2023-01-29T02:46:55;6.10;;;5.60;;
16326;SDS011;34812;49.846;9.610;2023-01-29T02:48:00;7.00;;;6.33;;
16326;SDS011;34812;49.846;9.610;2023-01-29T02:49:04;7.03;;;6.30;;
16326;SDS011;34812;49.846;9.610;2023-01-29T02:50:12;6.60;;;6.10;;
16326;SDS011;34812;49.846;9.610;2023-01-29T02:51:18;7.50;;;6.73;;
16326;SDS011;34812;49.846;9.610;2023-01-29T02:52:24;6.47;;;5.97;;
16326;SDS011;34812;49.846;9.610;2023-01-29T02:53:31;6.57;;;6.07;;
16326;SDS011;34812;49.846;9.610;2023-01-29T02:54:38;6.40;;;5.67;;
16326;SDS011;34812;49.846;9.610;2023-01-29T02:55:45;7.27;;;6.63;;
16326;SDS011;34812;49.846;9.610;2023-01-29T02:56:51;6.73;;;6.23;;
16326;SDS011;34812;49.846;9.610;2023-01-29T02:57:56;7.80;;;6.40;;
16326;SDS011;34812;49.846;9.610;2023-01-29T02:59:06;6.87;;;6.27;;
16326;SDS011;34812;49.846;9.610;2023-01-29T03:00:11;7.13;;;6.37;;
16326;SDS011;34812;49.846;9.610;2023-01-29T03:01:16;6.57;;;5.97;;
16326;SDS011;34812;49.846;9.610;2023-01-29T03:02:23;7.77;;;7.13;;
16326;SDS011;34812;49.846;9.610;2023-01-29T03:03:29;6.77;;;6.10;;
16326;SDS011;34812;49.846;9.610;2023-01-29T03:04:35;7.20;;;6.60;;
16326;SDS011;34812;49.846;9.610;2023-01-29T03:05:42;6.70;;;6.10;;
16326;SDS011;34812;49.846;9.610;2023-01-29T03:06:52;6.60;;;6.10;;
16326;SDS011;34812;49.846;9.610;2023-01-29T03:08:00;6.77;;;6.17;;
16326;SDS011;34812;49.846;9.610;2023-01-29T03:09:06;6.20;;;5.60;;
16326;SDS011;34812;49.846;9.610;2023-01-29T03:10:14;6.57;;;6.03;;
16326;SDS011;34812;49.846;9.610;2023-01-29T03:11:20;5.90;;;5.43;;
16326;SDS011;34812;49.846;9.610;2023-01-29T03:12:22;7.23;;;6.03;;
16326;SDS011;34812;49.846;9.610;2023-01-29T03:13:34;6.60;;;6.10;;
16326;SDS011;34812;49.846;9.610;2023-01-29T03:14:43;6.40;;;5.90;;
16326;SDS011;34812;49.846;9.610;2023-01-29T03:16:03;6.47;;;5.97;;
16326;SDS011;34812;49.846;9.610;2023-01-29T03:17:06;7.10;;;6.50;;
16326;SDS011;34812;49.846;9.610;2023-01-29T03:18:10;6.53;;;6.00;;
16326;SDS011;34812;49.846;9.610;2023-01-29T03:19:17;7.10;;;6.33;;
16326;SDS011;34812;49.846;9.610;2023-01-29T03:20:24;6.87;;;6.20;;
16326;SDS011;34812;49.846;9.610;2023-01-29T03:21:31;6.80;;;6.10;;
16326;SDS011;34812;49.846;9.610;2023-01-29T03:22:55;7.10;;;6.40;;
16326;SDS011;34812;49.846;9.610;2023-01-29T03:24:00;7.20;;;6.50;;
16326;SDS011;34812;49.846;9.610;2023-01-29T03:25:21;6.50;;;5.90;;
16326;SDS011;34812;49.846;9.610;2023-01-29T03:26:44;6.43;;;5.83;;
16326;SDS011;34812;49.846;9.610;2023-01-29T03:28:03;6.80;;;6.20;;
16326;SDS011;34812;49.846;9.610;2023-01-29T03:29:25;6.50;;;5.90;;
16326;SDS011;34812;49.846;9.610;2023-01-29T03:30:47;7.10;;;6.30;;
16326;SDS011;34812;49.846;9.610;2023-01-29T03:32:10;6.70;;;6.20;;
16326;SDS011;34812;49.846;9.610;2023-01-29T03:33:14;7.90;;;6.77;;
16326;SDS011;34812;49.846;9.610;2023-01-29T03:34:18;7.10;;;6.50;;
16326;SDS011;34812;49.846;9.610;2023-01-29T03:35:27;6.87;;;6.20;;
16326;SDS011;34812;49.846;9.610;2023-01-29T03:36:35;7.10;;;6.50;;
16326;SDS011;34812;49.846;9.610;2023-01-29T03:37:44;6.80;;;6.20;;
16326;SDS011;34812;49.846;9.610;2023-01-29T03:38:46;7.47;;;6.70;;
16326;SDS011;34812;49.846;9.610;2023-01-29T03:39:48;6.90;;;6.20;;
16326;SDS011;34812;49.846;9.610;2023-01-29T03:40:51;7.40;;;6.70;;
16326;SDS011;34812;49.846;9.610;2023-01-29T03:41:56;6.90;;;6.30;;
16326;SDS011;34812;49.846;9.610;2023-01-29T03:43:06;7.20;;;6.60;;
16326;SDS011;34812;49.846;9.610;2023-01-29T03:44:12;7.00;;;6.30;;
16326;SDS011;34812;49.846;9.610;2023-01-29T03:45:18;7.20;;;6.50;;
16326;SDS011;34812;49.846;9.610;2023-01-29T03:46:28;7.37;;;6.70;;
16326;SDS011;34812;49.846;9.610;2023-01-29T03:47:37;7.30;;;6.60;;
16326;SDS011;34812;49.846;9.610;2023-01-29T03:48:46;7.57;;;6.73;;
16326;SDS011;34812;49.846;9.610;2023-01-29T03:49:54;7.40;;;6.67;;
16326;SDS011;34812;49.846;9.610;2023-01-29T03:51:00;7.47;;;6.73;;
16326;SDS011;34812;49.846;9.610;2023-01-29T03:52:08;7.77;;;7.07;;
16326;SDS011;34812;49.846;9.610;2023-01-29T03:53:16;8.30;;;7.00;;
16326;SDS011;34812;49.846;9.610;2023-01-29T03:54:24;7.37;;;6.77;;
16326;SDS011;34812;49.846;9.610;2023-01-29T03:55:32;7.33;;;6.63;;
16326;SDS011;34812;49.846;9.610;2023-01-29T03:56:39;7.90;;;7.27;;
16326;SDS011;34812;49.846;9.610;2023-01-29T03:57:52;7.40;;;6.70;;
16326;SDS011;34812;49.846;9.610;2023-01-29T03:58:58;7.93;;;7.13;;
16326;SDS011;34812;49.846;9.610;2023-01-29T04:00:05;7.70;;;7.00;;
16326;SDS011;34812;49.846;9.610;2023-01-29T04:01:12;8.53;;;7.73;;
16326;SDS011;34812;49.846;9.610;2023-01-29T04:02:20;8.20;;;7.40;;
16326;SDS011;34812;49.846;9.610;2023-01-29T04:03:28;7.37;;;6.60;;
16326;SDS011;34812;49.846;9.610;2023-01-29T04:04:34;7.93;;;7.13;;
16326;SDS011;34812;49.846;9.610;2023-01-29T04:05:39;8.00;;;7.30;;
16326;SDS011;34812;49.846;9.610;2023-01-29T04:06:45;7.63;;;6.93;;
16326;SDS011;34812;49.846;9.610;2023-01-29T04:07:51;8.07;;;7.37;;
16326;SDS011;34812;49.846;9.610;2023-01-29T04:08:58;7.90;;;7.20;;
16326;SDS011;34812;49.846;9.610;2023-01-29T04:10:04;8.30;;;7.50;;
16326;SDS011;34812;49.846;9.610;2023-01-29T04:11:10;8.10;;;7.40;;
16326;SDS011;34812;49.846;9.610;2023-01-29T04:12:15;8.10;;;7.40;;
16326;SDS011;34812;49.846;9.610;2023-01-29T04:13:20;8.27;;;7.47;;
16326;SDS011;34812;49.846;9.610;2023-01-29T04:14:23;7.07;;;6.47;;
16326;SDS011;34812;49.846;9.610;2023-01-29T04:15:25;8.30;;;7.50;;
16326;SDS011;34812;49.846;9.610;2023-01-29T04:16:30;7.97;;;7.37;;
16326;SDS011;34812;49.846;9.610;2023-01-29T04:17:38;7.20;;;6.60;;
16326;SDS011;34812;49.846;9.610;2023-01-29T04:18:43;7.90;;;7.23;;
16326;SDS011;34812;49.846;9.610;2023-01-29T04:19:45;7.80;;;7.13;;
16326;SDS011;34812;49.846;9.610;2023-01-29T04:20:47;8.10;;;7.30;;
16326;SDS011;34812;49.846;9.610;2023-01-29T04:21:49;7.87;;;7.17;;
16326;SDS011;34812;49.846;9.610;2023-01-29T04:23:04;7.77;;;7.07;;
16326;SDS011;34812;49.846;9.610;2023-01-29T04:24:07;7.00;;;6.40;;
16326;SDS011;34812;49.846;9.610;2023-01-29T04:25:09;7.50;;;6.77;;
16326;SDS011;34812;49.846;9.610;2023-01-29T04:26:18;7.03;;;6.53;;
16326;SDS011;34812;49.846;9.610;2023-01-29T04:27:33;7.53;;;6.83;;
16326;SDS011;34812;49.846;9.610;2023-01-29T04:28:47;7.53;;;6.83;;
16326;SDS011;34812;49.846;9.610;2023-01-29T04:30:15;6.70;;;6.17;;
16326;SDS011;34812;49.846;9.610;2023-01-29T04:31:36;6.80;;;6.10;;
16326;SDS011;34812;49.846;9.610;2023-01-29T04:32:50;6.63;;;6.03;;
16326;SDS011;34812;49.846;9.610;2023-01-29T04:34:04;7.57;;;6.97;;
16326;SDS011;34812;49.846;9.610;2023-01-29T04:35:17;6.63;;;6.03;;
16326;SDS011;34812;49.846;9.610;2023-01-29T04:36:27;5.67;;;5.20;;
16326;SDS011;34812;49.846;9.610;2023-01-29T04:37:34;7.07;;;6.47;;
16326;SDS011;34812;49.846;9.610;2023-01-29T04:38:44;6.83;;;6.13;;
16326;SDS011;34812;49.846;9.610;2023-01-29T04:39:53;6.97;;;6.27;;
16326;SDS011;34812;49.846;9.610;2023-01-29T04:41:01;6.57;;;6.03;;
16326;SDS011;34812;49.846;9.610;2023-01-29T04:42:09;7.23;;;6.50;;
16326;SDS011;34812;49.846;9.610;2023-01-29T04:43:15;7.37;;;6.67;;
16326;SDS011;34812;49.846;9.610;2023-01-29T04:44:27;6.77;;;6.27;;
16326;SDS011;34812;49.846;9.610;2023-01-29T04:45:35;6.70;;;6.20;;
16326;SDS011;34812;49.846;9.610;2023-01-29T04:46:45;7.83;;;7.03;;
16326;SDS011;34812;49.846;9.610;2023-01-29T04:47:53;7.90;;;7.20;;
16326;SDS011;34812;49.846;9.610;2023-01-29T04:49:05;6.73;;;6.23;;
16326;SDS011;34812;49.846;9.610;2023-01-29T04:50:15;6.83;;;6.23;;
16326;SDS011;34812;49.846;9.610;2023-01-29T04:51:25;7.43;;;6.73;;
16326;SDS011;34812;49.846;9.610;2023-01-29T04:52:36;6.57;;;5.97;;
16326;SDS011;34812;49.846;9.610;2023-01-29T04:53:46;6.80;;;6.10;;
16326;SDS011;34812;49.846;9.610;2023-01-29T04:54:53;7.03;;;6.43;;
16326;SDS011;34812;49.846;9.610;2023-01-29T04:56:05;7.27;;;6.57;;
16326;SDS011;34812;49.846;9.610;2023-01-29T04:57:11;7.03;;;6.40;;
16326;SDS011;34812;49.846;9.610;2023-01-29T04:58:19;6.47;;;5.97;;
16326;SDS011;34812;49.846;9.610;2023-01-29T04:59:28;6.90;;;6.30;;
16326;SDS011;34812;49.846;9.610;2023-01-29T05:00:33;7.50;;;6.90;;
16326;SDS011;34812;49.846;9.610;2023-01-29T05:01:38;7.10;;;6.50;;
16326;SDS011;34812;49.846;9.610;2023-01-29T05:02:40;7.33;;;6.63;;
16326;SDS011;34812;49.846;9.610;2023-01-29T05:03:45;7.80;;;6.80;;
16326;SDS011;34812;49.846;9.610;2023-01-29T05:04:50;7.63;;;6.93;;
16326;SDS011;34812;49.846;9.610;2023-01-29T05:05:52;7.60;;;6.97;;
16326;SDS011;34812;49.846;9.610;2023-01-29T05:06:57;7.53;;;6.77;;
16326;SDS011;34812;49.846;9.610;2023-01-29T05:08:00;6.78;;;6.28;;
16326;SDS011;34812;49.846;9.610;2023-01-29T05:09:04;7.47;;;6.43;;
16326;SDS011;34812;49.846;9.610;2023-01-29T05:10:07;8.07;;;7.37;;
16326;SDS011;34812;49.846;9.610;2023-01-29T05:11:11;7.70;;;6.97;;
16326;SDS011;34812;49.846;9.610;2023-01-29T05:12:13;7.03;;;6.43;;
16326;SDS011;34812;49.846;9.610;2023-01-29T05:13:18;7.00;;;6.50;;
16326;SDS011;34812;49.846;9.610;2023-01-29T05:14:23;7.20;;;6.30;;
16326;SDS011;34812;49.846;9.610;2023-01-29T05:15:27;7.23;;;6.63;;
16326;SDS011;34812;49.846;9.610;2023-01-29T05:16:36;7.40;;;6.77;;
16326;SDS011;34812;49.846;9.610;2023-01-29T05:17:41;7.40;;;6.70;;
16326;SDS011;34812;49.846;9.610;2023-01-29T05:18:44;6.80;;;6.20;;
16326;SDS011;34812;49.846;9.610;2023-01-29T05:19:45;8.40;;;7.60;;
16326;SDS011;34812;49.846;9.610;2023-01-29T05:20:48;7.53;;;6.93;;
16326;SDS011;34812;49.846;9.610;2023-01-29T05:21:49;7.53;;;6.83;;
16326;SDS011;34812;49.846;9.610;2023-01-29T05:22:51;6.33;;;5.73;;
16326;SDS011;34812;49.846;9.610;2023-01-29T05:24:08;7.67;;;6.97;;
16326;SDS011;34812;49.846;9.610;2023-01-29T05:25:18;7.10;;;6.50;;
16326;SDS011;34812;49.846;9.610;2023-01-29T05:26:21;7.90;;;7.20;;
16326;SDS011;34812;49.846;9.610;2023-01-29T05:27:40;7.30;;;6.47;;
16326;SDS011;34812;49.846;9.610;2023-01-29T05:28:59;7.33;;;6.63;;
16326;SDS011;34812;49.846;9.610;2023-01-29T05:30:01;6.30;;;5.77;;
16326;SDS011;34812;49.846;9.610;2023-01-29T05:31:02;7.22;;;6.63;;
16326;SDS011;34812;49.846;9.610;2023-01-29T05:32:04;7.57;;;6.93;;
16326;SDS011;34812;49.846;9.610;2023-01-29T05:33:09;7.90;;;7.20;;
16326;SDS011;34812;49.846;9.610;2023-01-29T05:34:15;7.60;;;7.00;;
16326;SDS011;34812;49.846;9.610;2023-01-29T05:35:15;7.77;;;7.07;;
16326;SDS011;34812;49.846;9.610;2023-01-29T05:36:17;7.07;;;6.37;;
16326;SDS011;34812;49.846;9.610;2023-01-29T05:37:18;7.63;;;6.93;;
16326;SDS011;34812;49.846;9.610;2023-01-29T05:38:20;7.60;;;6.90;;
16326;SDS011;34812;49.846;9.610;2023-01-29T05:39:21;7.60;;;6.90;;
16326;SDS011;34812;49.846;9.610;2023-01-29T05:40:23;6.83;;;6.30;;
16326;SDS011;34812;49.846;9.610;2023-01-29T05:41:24;7.47;;;6.37;;
16326;SDS011;34812;49.846;9.610;2023-01-29T05:42:26;6.90;;;6.30;;
16326;SDS011;34812;49.846;9.610;2023-01-29T05:43:27;6.83;;;6.30;;
16326;SDS011;34812;49.846;9.610;2023-01-29T05:44:28;6.60;;;5.97;;
16326;SDS011;34812;49.846;9.610;2023-01-29T05:45:29;7.90;;;7.17;;
16326;SDS011;34812;49.846;9.610;2023-01-29T05:46:31;7.27;;;6.57;;
16326;SDS011;34812;49.846;9.610;2023-01-29T05:47:31;6.60;;;6.00;;
16326;SDS011;34812;49.846;9.610;2023-01-29T05:48:33;6.87;;;6.27;;
16326;SDS011;34812;49.846;9.610;2023-01-29T05:49:35;7.70;;;6.87;;
16326;SDS011;34812;49.846;9.610;2023-01-29T05:50:37;6.97;;;6.37;;
16326;SDS011;34812;49.846;9.610;2023-01-29T05:51:38;7.13;;;6.43;;
16326;SDS011;34812;49.846;9.610;2023-01-29T05:52:40;8.33;;;7.40;;
16326;SDS011;34812;49.846;9.610;2023-01-29T05:53:41;7.20;;;6.70;;
16326;SDS011;34812;49.846;9.610;2023-01-29T05:54:42;7.00;;;6.33;;
16326;SDS011;34812;49.846;9.610;2023-01-29T05:55:43;7.13;;;6.43;;
16326;SDS011;34812;49.846;9.610;2023-01-29T05:56:45;8.70;;;7.00;;
16326;SDS011;34812;49.846;9.610;2023-01-29T05:57:46;7.37;;;6.77;;
16326;SDS011;34812;49.846;9.610;2023-01-29T05:58:47;7.03;;;6.43;;
16326;SDS011;34812;49.846;9.610;2023-01-29T05:59:48;8.10;;;6.77;;
16326;SDS011;34812;49.846;9.610;2023-01-29T06:00:50;7.20;;;6.60;;
16326;SDS011;34812;49.846;9.610;2023-01-29T06:01:51;7.60;;;6.43;;
16326;SDS011;34812;49.846;9.610;2023-01-29T06:02:52;7.63;;;7.03;;
16326;SDS011;34812;49.846;9.610;2023-01-29T06:03:53;7.37;;;6.70;;
16326;SDS011;34812;49.846;9.610;2023-01-29T06:04:56;7.50;;;6.80;;
16326;SDS011;34812;49.846;9.610;2023-01-29T06:05:57;9.67;;;8.03;;
16326;SDS011;34812;49.846;9.610;2023-01-29T06:06:58;8.57;;;7.67;;
16326;SDS011;34812;49.846;9.610;2023-01-29T06:08:00;7.68;;;6.97;;
16326;SDS011;34812;49.846;9.610;2023-01-29T06:09:01;8.70;;;7.90;;
16326;SDS011;34812;49.846;9.610;2023-01-29T06:10:03;7.60;;;7.00;;
16326;SDS011;34812;49.846;9.610;2023-01-29T06:11:06;7.80;;;7.10;;
16326;SDS011;34812;49.846;9.610;2023-01-29T06:12:08;7.30;;;6.60;;
16326;SDS011;34812;49.846;9.610;2023-01-29T06:13:09;7.47;;;6.40;;
16326;SDS011;34812;49.846;9.610;2023-01-29T06:14:10;7.83;;;7.07;;
16326;SDS011;34812;49.846;9.610;2023-01-29T06:15:12;8.83;;;7.90;;
16326;SDS011;34812;49.846;9.610;2023-01-29T06:16:14;7.20;;;6.60;;
16326;SDS011;34812;49.846;9.610;2023-01-29T06:17:16;7.27;;;6.57;;
16326;SDS011;34812;49.846;9.610;2023-01-29T06:18:16;7.03;;;6.43;;
16326;SDS011;34812;49.846;9.610;2023-01-29T06:19:18;7.43;;;6.73;;
16326;SDS011;34812;49.846;9.610;2023-01-29T06:20:21;8.07;;;7.33;;
16326;SDS011;34812;49.846;9.610;2023-01-29T06:21:22;11.17;;;7.83;;
16326;SDS011;34812;49.846;9.610;2023-01-29T06:22:23;8.37;;;7.57;;
16326;SDS011;34812;49.846;9.610;2023-01-29T06:23:25;12.47;;;7.87;;
16326;SDS011;34812;49.846;9.610;2023-01-29T06:24:26;8.37;;;7.57;;
16326;SDS011;34812;49.846;9.610;2023-01-29T06:25:27;8.67;;;7.10;;
16326;SDS011;34812;49.846;9.610;2023-01-29T06:26:28;7.93;;;7.23;;
16326;SDS011;34812;49.846;9.610;2023-01-29T06:27:30;7.77;;;6.97;;
16326;SDS011;34812;49.846;9.610;2023-01-29T06:28:31;7.60;;;6.90;;
16326;SDS011;34812;49.846;9.610;2023-01-29T06:29:32;7.10;;;6.50;;
16326;SDS011;34812;49.846;9.610;2023-01-29T06:30:33;7.33;;;6.70;;
16326;SDS011;34812;49.846;9.610;2023-01-29T06:31:35;7.40;;;6.80;;
16326;SDS011;34812;49.846;9.610;2023-01-29T06:32:36;6.43;;;5.93;;
16326;SDS011;34812;49.846;9.610;2023-01-29T06:33:37;7.93;;;7.23;;
16326;SDS011;34812;49.846;9.610;2023-01-29T06:34:38;8.03;;;7.23;;
16326;SDS011;34812;49.846;9.610;2023-01-29T06:35:41;6.13;;;5.63;;
16326;SDS011;34812;49.846;9.610;2023-01-29T06:36:42;8.13;;;7.00;;